sensor_id;sensor_type;location;lat;lon;timestamp;temperature;humidity
46159;DHT22;31888;44.512;26.104;2022-08-20T00:01:06;26.80;79.60
46159;DHT22;31888;44.512;26.104;2022-08-20T00:03:17;26.80;79.70
46159;DHT22;31888;44.512;26.104;2022-08-20T00:05:27;26.70;80.20
46159;DHT22;31888;44.512;26.104;2022-08-20T00:07:33;26.80;80.20
46159;DHT22;31888;44.512;26.104;2022-08-20T00:09:38;26.70;80.40
46159;DHT22;31888;44.512;26.104;2022-08-20T00:11:43;26.50;80.70
46159;DHT22;31888;44.512;26.104;2022-08-20T00:13:53;26.40;81.10
46159;DHT22;31888;44.512;26.104;2022-08-20T00:15:58;26.30;81.30
46159;DHT22;31888;44.512;26.104;2022-08-20T00:18:04;26.20;81.40
46159;DHT22;31888;44.512;26.104;2022-08-20T00:20:11;26.20;81.70
46159;DHT22;31888;44.512;26.104;2022-08-20T00:22:16;26.10;81.90
46159;DHT22;31888;44.512;26.104;2022-08-20T00:24:20;26.00;82.30
46159;DHT22;31888;44.512;26.104;2022-08-20T00:26:25;25.90;82.50
46159;DHT22;31888;44.512;26.104;2022-08-20T00:28:30;25.90;83.30
46159;DHT22;31888;44.512;26.104;2022-08-20T00:30:36;25.80;83.20
46159;DHT22;31888;44.512;26.104;2022-08-20T00:32:43;25.80;83.30
46159;DHT22;31888;44.512;26.104;2022-08-20T00:34:49;25.70;83.70
46159;DHT22;31888;44.512;26.104;2022-08-20T00:36:53;25.60;83.80
46159;DHT22;31888;44.512;26.104;2022-08-20T00:38:59;25.80;83.50
46159;DHT22;31888;44.512;26.104;2022-08-20T00:41:05;25.70;83.40
46159;DHT22;31888;44.512;26.104;2022-08-20T00:43:26;25.70;83.70
46159;DHT22;31888;44.512;26.104;2022-08-20T00:45:33;25.80;83.40
46159;DHT22;31888;44.512;26.104;2022-08-20T00:47:40;25.80;83.50
46159;DHT22;31888;44.512;26.104;2022-08-20T00:49:53;25.70;83.80
46159;DHT22;31888;44.512;26.104;2022-08-20T00:52:03;25.60;84.10
46159;DHT22;31888;44.512;26.104;2022-08-20T00:54:13;25.50;84.60
46159;DHT22;31888;44.512;26.104;2022-08-20T00:56:18;25.40;85.20
46159;DHT22;31888;44.512;26.104;2022-08-20T00:58:22;25.30;85.20
46159;DHT22;31888;44.512;26.104;2022-08-20T01:00:30;25.30;85.50
46159;DHT22;31888;44.512;26.104;2022-08-20T01:02:34;25.20;85.50
46159;DHT22;31888;44.512;26.104;2022-08-20T01:04:41;25.20;85.40
46159;DHT22;31888;44.512;26.104;2022-08-20T01:06:48;25.20;85.20
46159;DHT22;31888;44.512;26.104;2022-08-20T01:08:52;25.20;85.60
46159;DHT22;31888;44.512;26.104;2022-08-20T01:10:57;25.30;85.40
46159;DHT22;31888;44.512;26.104;2022-08-20T01:13:16;25.40;85.40
46159;DHT22;31888;44.512;26.104;2022-08-20T01:15:23;25.40;85.10
46159;DHT22;31888;44.512;26.104;2022-08-20T01:17:34;25.50;85.30
46159;DHT22;31888;44.512;26.104;2022-08-20T01:19:43;25.50;85.20
46159;DHT22;31888;44.512;26.104;2022-08-20T01:21:49;25.50;85.00
46159;DHT22;31888;44.512;26.104;2022-08-20T01:24:00;25.60;84.70
46159;DHT22;31888;44.512;26.104;2022-08-20T01:26:09;25.50;85.20
46159;DHT22;31888;44.512;26.104;2022-08-20T01:28:17;25.50;85.20
46159;DHT22;31888;44.512;26.104;2022-08-20T01:30:24;25.60;85.40
46159;DHT22;31888;44.512;26.104;2022-08-20T01:32:30;25.60;84.50
46159;DHT22;31888;44.512;26.104;2022-08-20T01:34:40;25.60;84.80
46159;DHT22;31888;44.512;26.104;2022-08-20T01:36:46;25.50;85.10
46159;DHT22;31888;44.512;26.104;2022-08-20T01:38:51;25.40;85.40
46159;DHT22;31888;44.512;26.104;2022-08-20T01:41:09;25.20;86.30
46159;DHT22;31888;44.512;26.104;2022-08-20T01:43:17;25.00;87.10
46159;DHT22;31888;44.512;26.104;2022-08-20T01:45:23;24.90;87.30
46159;DHT22;31888;44.512;26.104;2022-08-20T01:47:32;24.80;87.60
46159;DHT22;31888;44.512;26.104;2022-08-20T01:49:42;24.90;87.90
46159;DHT22;31888;44.512;26.104;2022-08-20T01:51:49;24.80;88.10
46159;DHT22;31888;44.512;26.104;2022-08-20T01:53:55;24.80;88.20
46159;DHT22;31888;44.512;26.104;2022-08-20T01:56:04;24.70;88.50
46159;DHT22;31888;44.512;26.104;2022-08-20T01:58:10;24.80;88.60
46159;DHT22;31888;44.512;26.104;2022-08-20T02:00:17;24.80;88.90
46159;DHT22;31888;44.512;26.104;2022-08-20T02:02:25;24.80;88.80
46159;DHT22;31888;44.512;26.104;2022-08-20T02:04:29;24.90;88.60
46159;DHT22;31888;44.512;26.104;2022-08-20T02:06:36;25.00;88.30
46159;DHT22;31888;44.512;26.104;2022-08-20T02:08:47;25.00;87.80
46159;DHT22;31888;44.512;26.104;2022-08-20T02:10:52;25.10;88.00
46159;DHT22;31888;44.512;26.104;2022-08-20T02:12:58;25.20;87.50
46159;DHT22;31888;44.512;26.104;2022-08-20T02:15:24;25.30;87.20
46159;DHT22;31888;44.512;26.104;2022-08-20T02:17:39;25.20;87.20
46159;DHT22;31888;44.512;26.104;2022-08-20T02:19:49;25.30;87.20
46159;DHT22;31888;44.512;26.104;2022-08-20T02:21:55;25.30;87.20
46159;DHT22;31888;44.512;26.104;2022-08-20T02:24:00;25.30;87.40
46159;DHT22;31888;44.512;26.104;2022-08-20T02:26:05;25.30;87.50
46159;DHT22;31888;44.512;26.104;2022-08-20T02:28:15;25.10;88.20
46159;DHT22;31888;44.512;26.104;2022-08-20T02:30:25;24.90;88.80
46159;DHT22;31888;44.512;26.104;2022-08-20T02:32:30;24.80;89.20
46159;DHT22;31888;44.512;26.104;2022-08-20T02:34:36;24.80;89.60
46159;DHT22;31888;44.512;26.104;2022-08-20T02:36:43;24.70;89.70
46159;DHT22;31888;44.512;26.104;2022-08-20T02:38:48;24.60;90.10
46159;DHT22;31888;44.512;26.104;2022-08-20T02:40:52;24.50;90.30
46159;DHT22;31888;44.512;26.104;2022-08-20T02:42:58;24.40;90.50
46159;DHT22;31888;44.512;26.104;2022-08-20T02:45:04;24.40;90.60
46159;DHT22;31888;44.512;26.104;2022-08-20T02:47:10;24.30;91.00
46159;DHT22;31888;44.512;26.104;2022-08-20T02:49:18;24.20;90.90
46159;DHT22;31888;44.512;26.104;2022-08-20T02:51:23;24.20;90.90
46159;DHT22;31888;44.512;26.104;2022-08-20T02:53:34;24.20;91.00
46159;DHT22;31888;44.512;26.104;2022-08-20T02:55:39;24.20;90.90
46159;DHT22;31888;44.512;26.104;2022-08-20T02:57:45;24.20;91.00
46159;DHT22;31888;44.512;26.104;2022-08-20T02:59:52;24.30;91.00
46159;DHT22;31888;44.512;26.104;2022-08-20T03:01:58;24.30;91.00
46159;DHT22;31888;44.512;26.104;2022-08-20T03:04:06;24.30;91.00
46159;DHT22;31888;44.512;26.104;2022-08-20T03:06:20;24.40;91.00
46159;DHT22;31888;44.512;26.104;2022-08-20T03:08:27;24.50;91.00
46159;DHT22;31888;44.512;26.104;2022-08-20T03:10:35;24.50;90.70
46159;DHT22;31888;44.512;26.104;2022-08-20T03:12:41;24.50;90.80
46159;DHT22;31888;44.512;26.104;2022-08-20T03:14:56;24.50;90.90
46159;DHT22;31888;44.512;26.104;2022-08-20T03:17:01;24.50;90.90
46159;DHT22;31888;44.512;26.104;2022-08-20T03:19:07;24.40;91.10
46159;DHT22;31888;44.512;26.104;2022-08-20T03:21:12;24.50;91.10
46159;DHT22;31888;44.512;26.104;2022-08-20T03:23:18;24.50;90.90
46159;DHT22;31888;44.512;26.104;2022-08-20T03:25:23;24.50;91.00
46159;DHT22;31888;44.512;26.104;2022-08-20T03:27:28;24.60;91.00
46159;DHT22;31888;44.512;26.104;2022-08-20T03:29:38;24.60;91.00
46159;DHT22;31888;44.512;26.104;2022-08-20T03:31:42;24.60;91.10
46159;DHT22;31888;44.512;26.104;2022-08-20T03:33:47;24.60;91.10
46159;DHT22;31888;44.512;26.104;2022-08-20T03:35:57;24.60;91.10
46159;DHT22;31888;44.512;26.104;2022-08-20T03:38:06;24.50;91.20
46159;DHT22;31888;44.512;26.104;2022-08-20T03:40:14;24.60;91.20
46159;DHT22;31888;44.512;26.104;2022-08-20T03:42:18;24.50;91.60
46159;DHT22;31888;44.512;26.104;2022-08-20T03:44:23;24.50;91.70
46159;DHT22;31888;44.512;26.104;2022-08-20T03:46:28;24.70;91.40
46159;DHT22;31888;44.512;26.104;2022-08-20T03:48:33;25.00;91.20
46159;DHT22;31888;44.512;26.104;2022-08-20T03:50:37;25.20;90.80
46159;DHT22;31888;44.512;26.104;2022-08-20T03:52:46;25.40;90.50
46159;DHT22;31888;44.512;26.104;2022-08-20T03:54:50;25.80;90.00
46159;DHT22;31888;44.512;26.104;2022-08-20T03:56:56;25.90;89.50
46159;DHT22;31888;44.512;26.104;2022-08-20T03:59:00;25.80;89.70
46159;DHT22;31888;44.512;26.104;2022-08-20T04:01:06;25.60;90.10
46159;DHT22;31888;44.512;26.104;2022-08-20T04:03:30;25.20;90.50
46159;DHT22;31888;44.512;26.104;2022-08-20T04:05:36;25.00;91.20
46159;DHT22;31888;44.512;26.104;2022-08-20T04:07:42;24.90;91.50
46159;DHT22;31888;44.512;26.104;2022-08-20T04:09:48;24.70;91.70
46159;DHT22;31888;44.512;26.104;2022-08-20T04:11:52;24.70;92.10
46159;DHT22;31888;44.512;26.104;2022-08-20T04:14:02;24.70;91.80
46159;DHT22;31888;44.512;26.104;2022-08-20T04:16:06;24.80;91.70
46159;DHT22;31888;44.512;26.104;2022-08-20T04:18:20;24.90;91.40
46159;DHT22;31888;44.512;26.104;2022-08-20T04:20:26;25.00;91.30
46159;DHT22;31888;44.512;26.104;2022-08-20T04:22:30;25.00;91.10
46159;DHT22;31888;44.512;26.104;2022-08-20T04:24:35;25.20;91.20
46159;DHT22;31888;44.512;26.104;2022-08-20T04:26:41;25.40;90.80
46159;DHT22;31888;44.512;26.104;2022-08-20T04:28:46;25.50;90.80
46159;DHT22;31888;44.512;26.104;2022-08-20T04:30:52;25.70;90.50
46159;DHT22;31888;44.512;26.104;2022-08-20T04:32:57;25.70;90.30
46159;DHT22;31888;44.512;26.104;2022-08-20T04:35:02;25.70;90.30
46159;DHT22;31888;44.512;26.104;2022-08-20T04:37:07;25.70;90.20
46159;DHT22;31888;44.512;26.104;2022-08-20T04:39:19;25.70;90.00
46159;DHT22;31888;44.512;26.104;2022-08-20T04:41:23;25.80;90.00
46159;DHT22;31888;44.512;26.104;2022-08-20T04:43:30;25.90;90.00
46159;DHT22;31888;44.512;26.104;2022-08-20T04:45:35;25.90;90.10
46159;DHT22;31888;44.512;26.104;2022-08-20T04:47:39;26.30;89.10
46159;DHT22;31888;44.512;26.104;2022-08-20T04:49:44;26.60;88.20
46159;DHT22;31888;44.512;26.104;2022-08-20T04:51:49;26.90;86.70
46159;DHT22;31888;44.512;26.104;2022-08-20T04:53:54;27.50;85.00
46159;DHT22;31888;44.512;26.104;2022-08-20T04:56:01;27.90;84.70
46159;DHT22;31888;44.512;26.104;2022-08-20T04:58:10;28.30;84.30
46159;DHT22;31888;44.512;26.104;2022-08-20T05:00:16;28.80;81.80
46159;DHT22;31888;44.512;26.104;2022-08-20T05:02:21;28.80;82.30
46159;DHT22;31888;44.512;26.104;2022-08-20T05:04:25;28.90;81.00
46159;DHT22;31888;44.512;26.104;2022-08-20T05:06:31;29.10;80.70
46159;DHT22;31888;44.512;26.104;2022-08-20T05:08:36;29.20;80.40
46159;DHT22;31888;44.512;26.104;2022-08-20T05:10:41;29.40;79.70
46159;DHT22;31888;44.512;26.104;2022-08-20T05:12:46;29.70;79.30
46159;DHT22;31888;44.512;26.104;2022-08-20T05:14:59;29.90;78.10
46159;DHT22;31888;44.512;26.104;2022-08-20T05:17:06;30.10;77.70
46159;DHT22;31888;44.512;26.104;2022-08-20T05:19:12;30.30;76.60
46159;DHT22;31888;44.512;26.104;2022-08-20T05:21:17;30.20;75.20
46159;DHT22;31888;44.512;26.104;2022-08-20T05:23:21;30.10;76.60
46159;DHT22;31888;44.512;26.104;2022-08-20T05:25:26;30.10;75.80
46159;DHT22;31888;44.512;26.104;2022-08-20T05:27:32;30.00;75.80
46159;DHT22;31888;44.512;26.104;2022-08-20T05:29:36;30.20;75.50
46159;DHT22;31888;44.512;26.104;2022-08-20T05:31:41;30.20;75.20
46159;DHT22;31888;44.512;26.104;2022-08-20T05:33:46;30.20;75.20
46159;DHT22;31888;44.512;26.104;2022-08-20T05:35:54;30.10;75.40
46159;DHT22;31888;44.512;26.104;2022-08-20T05:38:00;29.80;76.00
46159;DHT22;31888;44.512;26.104;2022-08-20T05:40:08;30.00;75.90
46159;DHT22;31888;44.512;26.104;2022-08-20T05:42:13;30.20;75.60
46159;DHT22;31888;44.512;26.104;2022-08-20T05:44:18;29.80;76.20
46159;DHT22;31888;44.512;26.104;2022-08-20T05:46:22;30.00;75.10
46159;DHT22;31888;44.512;26.104;2022-08-20T05:48:27;30.20;74.80
46159;DHT22;31888;44.512;26.104;2022-08-20T05:50:33;29.80;74.40
46159;DHT22;31888;44.512;26.104;2022-08-20T05:52:38;29.40;75.00
46159;DHT22;31888;44.512;26.104;2022-08-20T05:54:42;29.20;76.40
46159;DHT22;31888;44.512;26.104;2022-08-20T05:56:46;29.20;76.40
46159;DHT22;31888;44.512;26.104;2022-08-20T05:58:50;29.20;76.10
46159;DHT22;31888;44.512;26.104;2022-08-20T06:00:55;29.50;76.20
46159;DHT22;31888;44.512;26.104;2022-08-20T06:03:00;29.50;75.90
46159;DHT22;31888;44.512;26.104;2022-08-20T06:05:22;29.70;75.70
46159;DHT22;31888;44.512;26.104;2022-08-20T06:07:28;29.30;76.10
46159;DHT22;31888;44.512;26.104;2022-08-20T06:09:33;29.10;76.40
46159;DHT22;31888;44.512;26.104;2022-08-20T06:11:38;28.90;77.50
46159;DHT22;31888;44.512;26.104;2022-08-20T06:13:43;29.10;76.90
46159;DHT22;31888;44.512;26.104;2022-08-20T06:15:47;29.30;77.00
46159;DHT22;31888;44.512;26.104;2022-08-20T06:17:52;29.60;76.10
46159;DHT22;31888;44.512;26.104;2022-08-20T06:20:02;30.20;75.50
46159;DHT22;31888;44.512;26.104;2022-08-20T06:22:09;30.40;74.40
46159;DHT22;31888;44.512;26.104;2022-08-20T06:24:29;30.70;74.40
46159;DHT22;31888;44.512;26.104;2022-08-20T06:26:33;30.70;73.70
46159;DHT22;31888;44.512;26.104;2022-08-20T06:28:37;30.20;74.70
46159;DHT22;31888;44.512;26.104;2022-08-20T06:30:42;30.20;74.90
46159;DHT22;31888;44.512;26.104;2022-08-20T06:32:46;30.30;74.50
46159;DHT22;31888;44.512;26.104;2022-08-20T06:34:51;30.20;74.40
46159;DHT22;31888;44.512;26.104;2022-08-20T06:36:57;30.40;74.60
46159;DHT22;31888;44.512;26.104;2022-08-20T06:39:02;30.70;73.80
46159;DHT22;31888;44.512;26.104;2022-08-20T06:41:08;30.60;73.80
46159;DHT22;31888;44.512;26.104;2022-08-20T06:43:13;30.60;74.20
46159;DHT22;31888;44.512;26.104;2022-08-20T06:45:20;30.90;73.20
46159;DHT22;31888;44.512;26.104;2022-08-20T06:47:26;30.90;73.80
46159;DHT22;31888;44.512;26.104;2022-08-20T06:49:33;30.50;74.20
46159;DHT22;31888;44.512;26.104;2022-08-20T06:51:38;30.40;73.60
46159;DHT22;31888;44.512;26.104;2022-08-20T06:53:43;30.70;73.50
46159;DHT22;31888;44.512;26.104;2022-08-20T06:55:50;31.00;73.40
46159;DHT22;31888;44.512;26.104;2022-08-20T06:57:58;31.10;72.70
46159;DHT22;31888;44.512;26.104;2022-08-20T07:00:04;31.20;72.50
46159;DHT22;31888;44.512;26.104;2022-08-20T07:02:09;31.10;72.60
46159;DHT22;31888;44.512;26.104;2022-08-20T07:04:14;30.90;73.20
46159;DHT22;31888;44.512;26.104;2022-08-20T07:06:18;31.10;73.00
46159;DHT22;31888;44.512;26.104;2022-08-20T07:08:23;31.40;72.60
46159;DHT22;31888;44.512;26.104;2022-08-20T07:10:27;31.80;71.60
46159;DHT22;31888;44.512;26.104;2022-08-20T07:12:32;32.00;71.30
46159;DHT22;31888;44.512;26.104;2022-08-20T07:14:39;32.20;70.00
46159;DHT22;31888;44.512;26.104;2022-08-20T07:16:44;32.10;70.10
46159;DHT22;31888;44.512;26.104;2022-08-20T07:18:49;31.80;70.70
46159;DHT22;31888;44.512;26.104;2022-08-20T07:20:54;31.70;70.00
46159;DHT22;31888;44.512;26.104;2022-08-20T07:22:59;31.70;71.20
46159;DHT22;31888;44.512;26.104;2022-08-20T07:25:07;31.80;70.30
46159;DHT22;31888;44.512;26.104;2022-08-20T07:27:12;32.00;69.70
46159;DHT22;31888;44.512;26.104;2022-08-20T07:29:17;32.10;69.50
46159;DHT22;31888;44.512;26.104;2022-08-20T07:31:25;32.40;69.20
46159;DHT22;31888;44.512;26.104;2022-08-20T07:33:49;32.70;69.40
46159;DHT22;31888;44.512;26.104;2022-08-20T07:35:55;32.70;68.40
46159;DHT22;31888;44.512;26.104;2022-08-20T07:38:00;32.80;68.70
46159;DHT22;31888;44.512;26.104;2022-08-20T07:40:06;33.20;68.30
46159;DHT22;31888;44.512;26.104;2022-08-20T07:42:12;33.60;67.60
46159;DHT22;31888;44.512;26.104;2022-08-20T07:44:19;33.30;67.70
46159;DHT22;31888;44.512;26.104;2022-08-20T07:46:36;32.90;67.80
46159;DHT22;31888;44.512;26.104;2022-08-20T07:48:43;33.00;68.40
46159;DHT22;31888;44.512;26.104;2022-08-20T07:50:48;33.00;67.60
46159;DHT22;31888;44.512;26.104;2022-08-20T07:52:56;33.10;68.40
46159;DHT22;31888;44.512;26.104;2022-08-20T07:55:08;33.50;67.50
46159;DHT22;31888;44.512;26.104;2022-08-20T07:57:12;33.30;67.50
46159;DHT22;31888;44.512;26.104;2022-08-20T07:59:19;33.60;66.50
46159;DHT22;31888;44.512;26.104;2022-08-20T08:01:29;33.40;67.00
46159;DHT22;31888;44.512;26.104;2022-08-20T08:03:35;33.30;67.40
46159;DHT22;31888;44.512;26.104;2022-08-20T08:05:52;33.00;67.20
46159;DHT22;31888;44.512;26.104;2022-08-20T08:08:00;32.90;67.70
46159;DHT22;31888;44.512;26.104;2022-08-20T08:10:11;33.60;66.60
46159;DHT22;31888;44.512;26.104;2022-08-20T08:12:27;34.00;66.70
46159;DHT22;31888;44.512;26.104;2022-08-20T08:14:45;33.80;64.80
46159;DHT22;31888;44.512;26.104;2022-08-20T08:16:52;33.80;65.00
46159;DHT22;31888;44.512;26.104;2022-08-20T08:19:39;34.00;65.00
46159;DHT22;31888;44.512;26.104;2022-08-20T08:22:41;34.00;65.00
46159;DHT22;31888;44.512;26.104;2022-08-20T08:25:16;34.10;65.40
46159;DHT22;31888;44.512;26.104;2022-08-20T08:27:24;34.90;64.50
46159;DHT22;31888;44.512;26.104;2022-08-20T08:29:44;34.70;62.90
46159;DHT22;31888;44.512;26.104;2022-08-20T08:32:10;34.00;65.20
46159;DHT22;31888;44.512;26.104;2022-08-20T08:34:31;34.20;64.40
46159;DHT22;31888;44.512;26.104;2022-08-20T08:37:15;33.80;63.60
46159;DHT22;31888;44.512;26.104;2022-08-20T08:39:20;34.10;64.40
46159;DHT22;31888;44.512;26.104;2022-08-20T08:41:48;34.30;64.00
46159;DHT22;31888;44.512;26.104;2022-08-20T08:44:05;34.80;63.30
46159;DHT22;31888;44.512;26.104;2022-08-20T08:46:17;34.80;63.10
46159;DHT22;31888;44.512;26.104;2022-08-20T08:48:37;34.60;62.60
46159;DHT22;31888;44.512;26.104;2022-08-20T08:50:53;34.40;63.10
46159;DHT22;31888;44.512;26.104;2022-08-20T08:53:36;34.60;62.50
46159;DHT22;31888;44.512;26.104;2022-08-20T08:56:30;35.10;62.20
46159;DHT22;31888;44.512;26.104;2022-08-20T08:58:59;35.50;62.50
46159;DHT22;31888;44.512;26.104;2022-08-20T09:01:41;35.30;62.20
46159;DHT22;31888;44.512;26.104;2022-08-20T09:04:14;35.10;62.50
46159;DHT22;31888;44.512;26.104;2022-08-20T09:06:26;34.90;62.00
46159;DHT22;31888;44.512;26.104;2022-08-20T09:08:41;34.30;62.60
46159;DHT22;31888;44.512;26.104;2022-08-20T09:14:00;34.10;63.20
46159;DHT22;31888;44.512;26.104;2022-08-20T09:16:28;34.30;62.90
46159;DHT22;31888;44.512;26.104;2022-08-20T09:19:16;34.60;62.20
46159;DHT22;31888;44.512;26.104;2022-08-20T09:21:37;34.80;62.20
46159;DHT22;31888;44.512;26.104;2022-08-20T09:24:01;34.60;62.30
46159;DHT22;31888;44.512;26.104;2022-08-20T09:26:27;34.60;62.10
46159;DHT22;31888;44.512;26.104;2022-08-20T09:28:55;34.50;60.80
46159;DHT22;31888;44.512;26.104;2022-08-20T09:31:24;34.50;61.10
46159;DHT22;31888;44.512;26.104;2022-08-20T09:33:44;34.60;61.60
46159;DHT22;31888;44.512;26.104;2022-08-20T09:36:02;34.40;62.50
46159;DHT22;31888;44.512;26.104;2022-08-20T09:38:49;34.10;63.10
46159;DHT22;31888;44.512;26.104;2022-08-20T09:41:06;34.00;62.70
46159;DHT22;31888;44.512;26.104;2022-08-20T09:43:22;34.40;62.20
46159;DHT22;31888;44.512;26.104;2022-08-20T09:45:50;34.50;61.70
46159;DHT22;31888;44.512;26.104;2022-08-20T09:48:12;34.20;60.90
46159;DHT22;31888;44.512;26.104;2022-08-20T09:50:36;34.00;62.40
46159;DHT22;31888;44.512;26.104;2022-08-20T09:52:51;33.70;62.60
46159;DHT22;31888;44.512;26.104;2022-08-20T09:55:20;33.70;62.40
46159;DHT22;31888;44.512;26.104;2022-08-20T09:57:35;34.10;62.20
46159;DHT22;31888;44.512;26.104;2022-08-20T10:00:09;34.40;61.30
46159;DHT22;31888;44.512;26.104;2022-08-20T10:02:32;34.50;61.90
46159;DHT22;31888;44.512;26.104;2022-08-20T10:04:47;34.70;61.50
46159;DHT22;31888;44.512;26.104;2022-08-20T10:07:10;35.20;61.30
46159;DHT22;31888;44.512;26.104;2022-08-20T10:09:48;35.10;60.60
46159;DHT22;31888;44.512;26.104;2022-08-20T10:12:23;34.60;60.80
46159;DHT22;31888;44.512;26.104;2022-08-20T10:14:52;34.50;60.80
46159;DHT22;31888;44.512;26.104;2022-08-20T10:17:39;34.90;60.60
46159;DHT22;31888;44.512;26.104;2022-08-20T10:22:48;35.50;59.30
46159;DHT22;31888;44.512;26.104;2022-08-20T10:25:33;35.80;58.20
46159;DHT22;31888;44.512;26.104;2022-08-20T10:28:00;35.20;59.40
46159;DHT22;31888;44.512;26.104;2022-08-20T10:30:29;35.20;59.40
46159;DHT22;31888;44.512;26.104;2022-08-20T10:33:08;35.30;59.50
46159;DHT22;31888;44.512;26.104;2022-08-20T10:36:05;35.40;59.60
46159;DHT22;31888;44.512;26.104;2022-08-20T10:38:49;35.40;59.20
46159;DHT22;31888;44.512;26.104;2022-08-20T10:42:04;35.20;58.40
46159;DHT22;31888;44.512;26.104;2022-08-20T10:48:09;35.10;59.30
46159;DHT22;31888;44.512;26.104;2022-08-20T10:57:59;34.70;60.00
46159;DHT22;31888;44.512;26.104;2022-08-20T11:00:31;35.10;59.80
46159;DHT22;31888;44.512;26.104;2022-08-20T11:03:43;35.40;59.40
46159;DHT22;31888;44.512;26.104;2022-08-20T11:07:13;35.40;59.10
46159;DHT22;31888;44.512;26.104;2022-08-20T11:10:10;35.50;58.30
46159;DHT22;31888;44.512;26.104;2022-08-20T11:13:03;34.90;59.80
46159;DHT22;31888;44.512;26.104;2022-08-20T11:15:29;34.80;59.50
46159;DHT22;31888;44.512;26.104;2022-08-20T11:18:14;35.00;59.10
46159;DHT22;31888;44.512;26.104;2022-08-20T11:20:48;35.20;59.30
46159;DHT22;31888;44.512;26.104;2022-08-20T11:23:47;35.20;58.90
46159;DHT22;31888;44.512;26.104;2022-08-20T11:26:21;35.60;58.50
46159;DHT22;31888;44.512;26.104;2022-08-20T11:29:38;35.90;58.00
46159;DHT22;31888;44.512;26.104;2022-08-20T11:32:42;35.80;57.90
46159;DHT22;31888;44.512;26.104;2022-08-20T11:35:20;35.50;58.20
46159;DHT22;31888;44.512;26.104;2022-08-20T11:38:25;35.20;59.00
46159;DHT22;31888;44.512;26.104;2022-08-20T11:41:22;35.20;58.50
46159;DHT22;31888;44.512;26.104;2022-08-20T11:44:10;35.40;58.50
46159;DHT22;31888;44.512;26.104;2022-08-20T11:46:47;35.80;57.80
46159;DHT22;31888;44.512;26.104;2022-08-20T11:49:54;35.70;57.70
46159;DHT22;31888;44.512;26.104;2022-08-20T11:52:47;35.70;58.00
46159;DHT22;31888;44.512;26.104;2022-08-20T11:55:46;36.00;57.60
46159;DHT22;31888;44.512;26.104;2022-08-20T11:58:38;35.70;57.50
46159;DHT22;31888;44.512;26.104;2022-08-20T12:05:14;35.20;58.00
46159;DHT22;31888;44.512;26.104;2022-08-20T12:08:56;35.60;57.60
46159;DHT22;31888;44.512;26.104;2022-08-20T12:12:17;35.60;57.50
46159;DHT22;31888;44.512;26.104;2022-08-20T12:15:17;35.10;57.70
46159;DHT22;31888;44.512;26.104;2022-08-20T12:18:05;35.50;57.40
46159;DHT22;31888;44.512;26.104;2022-08-20T12:21:21;35.50;56.60
46159;DHT22;31888;44.512;26.104;2022-08-20T12:24:27;35.30;57.60
46159;DHT22;31888;44.512;26.104;2022-08-20T12:32:22;35.70;57.10
46159;DHT22;31888;44.512;26.104;2022-08-20T12:36:51;35.80;56.60
46159;DHT22;31888;44.512;26.104;2022-08-20T12:49:57;36.20;56.10
46159;DHT22;31888;44.512;26.104;2022-08-20T13:05:44;35.80;55.70
46159;DHT22;31888;44.512;26.104;2022-08-20T13:08:23;35.40;56.60
46159;DHT22;31888;44.512;26.104;2022-08-20T13:11:02;35.30;56.80
46159;DHT22;31888;44.512;26.104;2022-08-20T13:13:57;35.20;56.80
46159;DHT22;31888;44.512;26.104;2022-08-20T13:16:59;35.50;56.60
46159;DHT22;31888;44.512;26.104;2022-08-20T13:20:10;36.10;56.10
46159;DHT22;31888;44.512;26.104;2022-08-20T13:22:48;36.00;56.50
46159;DHT22;31888;44.512;26.104;2022-08-20T13:25:31;35.70;56.70
46159;DHT22;31888;44.512;26.104;2022-08-20T13:28:26;35.90;56.20
46159;DHT22;31888;44.512;26.104;2022-08-20T13:34:46;36.40;54.70
46159;DHT22;31888;44.512;26.104;2022-08-20T13:37:31;36.10;55.30
46159;DHT22;31888;44.512;26.104;2022-08-20T13:40:07;35.60;55.70
46159;DHT22;31888;44.512;26.104;2022-08-20T13:42:49;35.20;56.60
46159;DHT22;31888;44.512;26.104;2022-08-20T13:49:57;35.40;56.10
46159;DHT22;31888;44.512;26.104;2022-08-20T13:53:57;35.80;55.50
46159;DHT22;31888;44.512;26.104;2022-08-20T13:56:17;36.30;54.30
46159;DHT22;31888;44.512;26.104;2022-08-20T13:58:40;36.20;53.90
46159;DHT22;31888;44.512;26.104;2022-08-20T14:01:32;36.20;54.80
46159;DHT22;31888;44.512;26.104;2022-08-20T14:04:13;35.60;56.20
46159;DHT22;31888;44.512;26.104;2022-08-20T14:06:59;35.60;56.00
46159;DHT22;31888;44.512;26.104;2022-08-20T14:10:27;35.60;55.60
46159;DHT22;31888;44.512;26.104;2022-08-20T14:13:32;35.80;55.70
46159;DHT22;31888;44.512;26.104;2022-08-20T14:15:37;35.70;55.60
46159;DHT22;31888;44.512;26.104;2022-08-20T14:17:49;35.40;55.60
46159;DHT22;31888;44.512;26.104;2022-08-20T14:19:55;35.30;55.90
46159;DHT22;31888;44.512;26.104;2022-08-20T14:22:05;35.40;56.10
46159;DHT22;31888;44.512;26.104;2022-08-20T14:24:09;35.30;55.70
46159;DHT22;31888;44.512;26.104;2022-08-20T14:26:13;35.10;56.30
46159;DHT22;31888;44.512;26.104;2022-08-20T14:28:20;35.10;56.30
46159;DHT22;31888;44.512;26.104;2022-08-20T14:30:27;35.20;56.40
46159;DHT22;31888;44.512;26.104;2022-08-20T14:32:32;35.20;56.60
46159;DHT22;31888;44.512;26.104;2022-08-20T14:34:38;35.30;56.50
46159;DHT22;31888;44.512;26.104;2022-08-20T14:36:42;35.60;55.80
46159;DHT22;31888;44.512;26.104;2022-08-20T14:38:49;35.70;55.70
46159;DHT22;31888;44.512;26.104;2022-08-20T14:40:54;35.40;56.30
46159;DHT22;31888;44.512;26.104;2022-08-20T14:42:58;35.00;56.30
46159;DHT22;31888;44.512;26.104;2022-08-20T14:45:03;34.60;56.90
46159;DHT22;31888;44.512;26.104;2022-08-20T14:47:15;34.50;57.80
46159;DHT22;31888;44.512;26.104;2022-08-20T14:49:20;34.50;56.90
46159;DHT22;31888;44.512;26.104;2022-08-20T14:51:25;34.40;56.90
46159;DHT22;31888;44.512;26.104;2022-08-20T14:53:30;34.50;56.90
46159;DHT22;31888;44.512;26.104;2022-08-20T14:55:41;34.60;56.90
46159;DHT22;31888;44.512;26.104;2022-08-20T14:57:46;34.50;57.10
46159;DHT22;31888;44.512;26.104;2022-08-20T14:59:54;34.70;56.80
46159;DHT22;31888;44.512;26.104;2022-08-20T15:02:00;34.70;56.80
46159;DHT22;31888;44.512;26.104;2022-08-20T15:04:05;34.80;56.40
46159;DHT22;31888;44.512;26.104;2022-08-20T15:06:10;34.80;56.30
46159;DHT22;31888;44.512;26.104;2022-08-20T15:08:25;34.90;56.30
46159;DHT22;31888;44.512;26.104;2022-08-20T15:10:32;34.90;56.20